Time;durP1;ratioP1;P1;durP2;ratioP2;P2;SDS_P1;SDS_P2;PMS_P1;PMS_P2;Temp;Humidity;BMP_temperature;BMP_pressure;BME280_temperature;BME280_humidity;BME280_pressure;Samples;Min_cycle;Max_cycle;Signal;HPM_P1;HPM_P2
2022/09/24 00:01:19;;;;;;;7.53;6.13;;;;;;;13.72;91.63;100238.13;5027896;28;20060;-78
2022/09/24 00:03:49;;;;;;;8.95;6.45;;;;;;;13.72;92.18;100238.13;5046063;28;20040;-78
2022/09/24 00:06:17;;;;;;;8.30;6.07;;;;;;;13.70;91.32;100239.59;5061081;28;20043;-78
2022/09/24 00:08:43;;;;;;;7.90;5.63;;;;;;;13.70;91.51;100239.59;5061369;28;20037;-78
2022/09/24 00:11:10;;;;;;;10.57;6.95;;;;;;;13.70;92.30;100234.84;5060986;28;20070;-78
2022/09/24 00:13:36;;;;;;;8.73;6.32;;;;;;;13.69;92.12;100233.19;5061189;28;20040;-78
2022/09/24 00:16:03;;;;;;;9.85;7.05;;;;;;;13.69;90.44;100237.97;5078688;28;20083;-78
2022/09/24 00:18:29;;;;;;;8.15;6.18;;;;;;;13.67;90.85;100238.28;5031499;28;20544;-77
2022/09/24 00:20:55;;;;;;;8.30;6.10;;;;;;;13.64;91.01;100242.53;5063423;28;20151;-78
2022/09/24 00:23:20;;;;;;;7.65;5.88;;;;;;;13.62;90.26;100242.06;5060542;28;20021;-78
2022/09/24 00:28:31;;;;;;;11.63;6.53;;;;;;;13.62;92.42;100230.88;5053910;28;20040;-78
2022/09/24 00:30:57;;;;;;;7.65;6.65;;;;;;;13.60;92.24;100241.53;5044183;28;20050;-78
2022/09/24 00:33:24;;;;;;;9.75;6.63;;;;;;;13.60;91.62;100241.53;5051422;28;20029;-78
2022/09/24 00:35:51;;;;;;;8.93;6.35;;;;;;;13.58;91.79;100248.59;5077818;28;20110;-78
2022/09/24 00:38:16;;;;;;;8.48;6.03;;;;;;;13.56;90.89;100251.69;5055928;28;20051;-78
2022/09/24 00:40:42;;;;;;;7.88;5.88;;;;;;;13.55;91.52;100252.00;5058151;28;20060;-78
2022/09/24 00:43:40;;;;;;;9.02;6.57;;;;;;;13.50;90.65;100255.75;5071940;28;20031;-78
2022/09/24 00:46:37;;;;;;;8.80;6.78;;;;;;;13.50;90.98;100252.97;5020066;28;20078;-78
2022/09/24 00:49:11;;;;;;;7.40;5.82;;;;;;;13.48;91.75;100255.25;5071843;28;20032;-78
2022/09/24 00:51:36;;;;;;;7.72;5.53;;;;;;;13.46;91.78;100253.94;5039960;28;20081;-78
2022/09/24 00:54:07;;;;;;;7.80;5.80;;;;;;;13.45;92.08;100255.88;5071624;28;20017;-77
2022/09/24 00:56:35;;;;;;;8.85;6.85;;;;;;;13.43;92.06;100257.34;5086844;28;20032;-78
2022/09/24 00:59:01;;;;;;;10.15;6.78;;;;;;;13.43;92.63;100257.34;5060436;28;20079;-78
2022/09/24 01:01:26;;;;;;;9.70;6.40;;;;;;;13.41;93.91;100258.50;5056816;28;20053;-77
2022/09/24 01:03:52;;;;;;;12.23;7.75;;;;;;;13.38;93.16;100255.53;5049683;28;20025;-78
2022/09/24 01:06:18;;;;;;;15.23;9.85;;;;;;;13.36;97.38;100253.06;5042824;28;20027;-78
2022/09/24 01:08:44;;;;;;;10.23;7.53;;;;;;;13.39;96.30;100257.16;5070056;28;20032;-78
2022/09/24 01:11:12;;;;;;;11.27;7.22;;;;;;;13.38;95.11;100253.56;5026864;28;20020;-78
2022/09/24 01:13:54;;;;;;;12.43;8.05;;;;;;;13.37;97.82;100249.13;5072289;28;20416;-78
2022/09/24 01:16:35;;;;;;;9.67;6.93;;;;;;;13.39;99.43;100249.63;5091908;28;20034;-78
2022/09/24 01:19:08;;;;;;;11.25;7.80;;;;;;;13.41;100.00;100249.31;5067595;28;20029;-77
2022/09/24 01:21:33;;;;;;;9.07;6.68;;;;;;;13.41;99.03;100243.72;5083888;28;20028;-78
2022/09/24 01:24:14;;;;;;;8.52;5.80;;;;;;;13.40;97.92;100240.13;5064216;28;20142;-77
2022/09/24 01:27:18;;;;;;;9.07;6.15;;;;;;;13.44;100.00;100243.09;5027542;28;20085;-78
2022/09/24 01:30:03;;;;;;;6.85;5.38;;;;;;;13.45;99.01;100235.53;5050201;28;20032;-78
2022/09/24 01:32:39;;;;;;;8.35;5.97;;;;;;;13.43;100.00;100241.47;5063091;28;20503;-78
2022/09/24 01:35:14;;;;;;;8.77;5.22;;;;;;;13.47;99.79;100236.88;5029517;28;20020;-78
2022/09/24 01:37:41;;;;;;;6.53;5.22;;;;;;;13.46;98.57;100234.41;5040152;28;20052;-78
2022/09/24 01:40:07;;;;;;;6.88;4.68;;;;;;;13.44;96.50;100240.31;5079416;28;20384;-78
2022/09/24 01:42:33;;;;;;;6.55;4.10;;;;;;;13.46;96.35;100235.25;5045933;28;20035;-78
2022/09/24 01:44:59;;;;;;;7.95;4.72;;;;;;;13.46;94.86;100234.41;5026109;28;20035;-78
2022/09/24 01:47:32;;;;;;;5.60;4.18;;;;;;;13.44;94.15;100231.13;5009731;28;20032;-78
2022/09/24 01:49:58;;;;;;;6.05;4.13;;;;;;;13.44;93.63;100231.94;5038160;28;20035;-78
2022/09/24 01:52:33;;;;;;;6.25;4.18;;;;;;;13.44;93.43;100231.94;5058887;28;20025;-78
2022/09/24 01:54:58;;;;;;;7.40;3.80;;;;;;;13.45;93.55;100228.00;5064617;28;20064;-78
2022/09/24 01:57:26;;;;;;;5.63;3.80;;;;;;;13.43;93.69;100230.31;5042424;28;20054;-78
2022/09/24 01:59:59;;;;;;;6.43;4.25;;;;;;;13.41;94.71;100222.25;5036435;28;20045;-78
2022/09/24 02:02:36;;;;;;;5.47;3.92;;;;;;;13.43;94.93;100221.09;5042253;28;20500;-78
2022/09/24 02:05:19;;;;;;;6.85;4.28;;;;;;;13.44;nan;100220.78;5041443;28;20035;-77
2022/09/24 02:07:54;;;;;;;5.75;3.97;;;;;;;13.43;95.82;100215.50;5042182;28;20119;-78
2022/09/24 02:10:19;;;;;;;5.93;4.60;;;;;;;13.43;97.17;100210.78;5047192;28;20228;-78
2022/09/24 02:12:49;;;;;;;5.47;4.05;;;;;;;13.43;97.22;100210.78;5037001;28;20084;-78
2022/09/24 02:15:25;;;;;;;6.47;4.43;;;;;;;13.44;97.31;100208.81;5069819;28;20033;-79
2022/09/24 02:17:53;;;;;;;6.70;4.32;;;;;;;13.43;97.24;100210.78;5027778;28;20031;-78
2022/09/24 02:20:20;;;;;;;6.75;4.90;;;;;;;13.41;96.82;100216.66;5055291;28;20091;-78
2022/09/24 02:22:46;;;;;;;8.13;4.63;;;;;;;13.43;96.29;100213.56;5061784;28;20353;-77
2022/09/24 02:25:13;;;;;;;6.75;4.45;;;;;;;13.43;96.43;100207.13;5056748;28;20088;-78
2022/09/24 02:27:39;;;;;;;7.90;5.30;;;;;;;13.42;96.92;100211.91;5065695;28;20032;-78
2022/09/24 02:30:05;;;;;;;7.75;4.63;;;;;;;13.38;95.12;100217.31;5086387;28;20036;-78
2022/09/24 02:32:31;;;;;;;7.03;4.47;;;;;;;13.38;95.87;100213.69;5058655;28;20104;-78
2022/09/24 02:35:01;;;;;;;5.72;4.00;;;;;;;13.36;95.58;100213.19;5044506;28;20099;-78
2022/09/24 02:37:27;;;;;;;8.15;5.00;;;;;;;13.38;96.94;100222.06;5042514;28;20024;-78
2022/09/24 02:39:52;;;;;;;6.18;4.63;;;;;;;13.37;95.84;100212.03;5052654;28;20032;-78
2022/09/24 02:42:17;;;;;;;5.13;4.35;;;;;;;13.34;95.77;100210.69;5062104;28;20381;-78
2022/09/24 02:44:43;;;;;;;7.57;4.30;;;;;;;13.34;96.07;100207.91;5067250;28;20043;-78
2022/09/24 02:47:10;;;;;;;6.55;4.80;;;;;;;13.34;96.96;100212.66;5040797;28;20039;-78
2022/09/24 02:49:35;;;;;;;9.48;5.20;;;;;;;13.34;97.54;100207.09;5017536;28;20033;-78
2022/09/24 02:52:01;;;;;;;9.13;6.03;;;;;;;13.32;98.35;100201.03;5069367;28;20040;-78
2022/09/24 02:54:26;;;;;;;6.15;4.70;;;;;;;13.31;97.82;100202.16;5058153;28;20121;-78
2022/09/24 02:56:52;;;;;;;6.28;4.28;;;;;;;13.30;97.05;100197.72;5075954;28;20039;-78
2022/09/24 02:59:20;;;;;;;5.85;4.50;;;;;;;13.27;96.10;100198.38;5049930;28;20043;-78
2022/09/24 03:01:46;;;;;;;5.80;4.05;;;;;;;13.27;95.62;100198.38;5056473;28;20071;-78
2022/09/24 03:04:12;;;;;;;7.95;4.18;;;;;;;13.26;96.18;100185.56;5016824;28;20389;-78
2022/09/24 03:06:37;;;;;;;5.47;4.10;;;;;;;13.24;95.66;100182.25;5054063;28;20075;-78
2022/09/24 03:09:03;;;;;;;7.07;4.20;;;;;;;13.23;94.98;100183.38;5036793;28;20051;-78
2022/09/24 03:11:30;;;;;;;4.50;3.80;;;;;;;13.21;94.80;100188.47;5052524;28;20067;-78
2022/09/24 03:13:55;;;;;;;7.35;4.13;;;;;;;13.20;94.20;100187.63;5041906;28;20033;-78
2022/09/24 03:16:21;;;;;;;5.25;4.25;;;;;;;13.20;95.40;100187.63;5042744;28;20037;-78
2022/09/24 03:18:46;;;;;;;7.43;5.28;;;;;;;13.15;96.33;100187.78;5064722;28;20088;-78
2022/09/24 03:21:13;;;;;;;6.47;5.03;;;;;;;13.11;96.28;100186.75;5064924;28;20020;-78
2022/09/24 03:23:39;;;;;;;6.55;4.32;;;;;;;13.07;95.78;100186.59;5029182;28;20074;-78
2022/09/24 03:26:04;;;;;;;7.03;4.68;;;;;;;13.02;96.18;100195.06;5093128;28;20040;-78
2022/09/24 03:28:30;;;;;;;6.15;4.68;;;;;;;13.03;96.45;100193.94;5052065;28;20110;-78
2022/09/24 03:31:01;;;;;;;6.38;4.25;;;;;;;12.98;96.83;100196.84;5065180;28;20028;-77
2022/09/24 03:33:32;;;;;;;6.28;4.75;;;;;;;12.96;96.77;100193.56;5062727;28;20103;-78
2022/09/24 03:35:57;;;;;;;7.90;4.50;;;;;;;12.88;96.52;100194.34;5035494;28;20037;-78
2022/09/24 03:38:23;;;;;;;8.45;4.65;;;;;;;12.89;96.29;100188.41;5061395;28;20058;-78
2022/09/24 03:40:48;;;;;;;8.43;5.18;;;;;;;12.87;96.96;100184.31;5033289;28;20032;-78
2022/09/24 03:43:14;;;;;;;9.70;4.82;;;;;;;12.82;96.76;100184.47;5036829;28;20032;-78
2022/09/24 03:45:39;;;;;;;7.18;4.10;;;;;;;12.82;96.80;100181.66;5061515;28;20519;-77
2022/09/24 03:48:05;;;;;;;7.35;5.00;;;;;;;12.75;97.61;100177.34;5044945;28;20119;-78
2022/09/24 03:50:31;;;;;;;7.03;4.80;;;;;;;12.74;97.38;100177.69;5029664;28;20032;-77
2022/09/24 03:52:56;;;;;;;6.07;4.40;;;;;;;12.75;97.29;100182.91;5036176;28;20040;-78
2022/09/24 03:55:22;;;;;;;7.05;4.40;;;;;;;12.75;96.70;100176.53;5041586;28;20032;-78
2022/09/24 03:57:47;;;;;;;6.38;4.60;;;;;;;12.72;96.91;100177.16;5051702;28;20055;-78
2022/09/24 04:00:13;;;;;;;6.25;4.50;;;;;;;12.67;96.88;100166.13;5043598;28;20048;-78
2022/09/24 04:02:39;;;;;;;6.18;3.95;;;;;;;12.67;96.42;100168.91;5028232;28;20037;-78
2022/09/24 04:05:06;;;;;;;8.95;4.82;;;;;;;12.62;96.98;100171.81;5052954;28;20025;-78
2022/09/24 04:07:31;;;;;;;6.93;4.85;;;;;;;12.62;97.14;100177.41;5064496;28;20046;-78
2022/09/24 04:09:57;;;;;;;7.22;4.45;;;;;;;12.59;96.72;100173.31;5042119;28;20563;-78
2022/09/24 04:12:22;;;;;;;6.05;3.95;;;;;;;12.53;96.79;100180.94;5072318;28;20028;-78
2022/09/24 04:14:48;;;;;;;6.47;4.88;;;;;;;12.55;96.87;100182.59;5039336;28;20032;-78
2022/09/24 04:17:13;;;;;;;6.63;4.45;;;;;;;12.53;96.94;100180.94;5020535;28;20039;-78
2022/09/24 04:19:39;;;;;;;5.85;4.18;;;;;;;12.51;96.58;100180.44;5038939;28;20032;-78
2022/09/24 04:22:04;;;;;;;5.10;4.25;;;;;;;12.50;96.45;100175.19;5059445;28;20035;-78
2022/09/24 04:24:30;;;;;;;5.68;4.45;;;;;;;12.47;96.85;100173.84;5025207;28;20085;-78
2022/09/24 04:26:56;;;;;;;6.38;4.78;;;;;;;12.45;97.19;100178.94;5086999;28;20024;-78
2022/09/24 04:29:21;;;;;;;6.78;4.55;;;;;;;12.44;96.63;100180.06;5044300;28;20029;-78
2022/09/24 04:31:47;;;;;;;6.20;4.35;;;;;;;12.44;96.72;100190.38;5044065;28;20033;-78
2022/09/24 04:34:13;;;;;;;5.43;4.35;;;;;;;12.43;96.10;100197.09;5061605;28;20024;-78
2022/09/24 04:36:38;;;;;;;6.13;3.95;;;;;;;12.43;96.09;100191.53;5080237;28;20032;-78
2022/09/24 04:39:04;;;;;;;5.75;4.18;;;;;;;12.39;96.37;100184.91;5055130;28;20042;-78
2022/09/24 04:41:30;;;;;;;5.20;3.78;;;;;;;12.36;95.70;100185.56;5010005;28;20040;-78
2022/09/24 04:43:56;;;;;;;5.10;4.00;;;;;;;12.35;95.76;100186.69;5039815;28;20420;-78
2022/09/24 04:46:21;;;;;;;5.97;4.05;;;;;;;12.35;95.61;100183.91;5027248;28;20060;-78
2022/09/24 04:48:47;;;;;;;6.60;4.43;;;;;;;12.34;95.93;100173.88;5055764;28;20476;-78
2022/09/24 04:51:13;;;;;;;5.60;4.40;;;;;;;12.30;95.91;100177.31;5018446;28;20025;-78
2022/09/24 04:53:39;;;;;;;6.13;3.70;;;;;;;12.31;95.92;100183.69;5043375;28;20028;-78
2022/09/24 04:56:04;;;;;;;6.45;4.53;;;;;;;12.27;96.63;100183.50;5043960;28;20470;-78
2022/09/24 04:58:30;;;;;;;6.70;4.68;;;;;;;12.29;97.32;100181.25;5076594;28;20107;-78
2022/09/24 05:00:55;;;;;;;7.32;4.05;;;;;;;12.29;97.55;100184.03;5055252;28;20032;-78
2022/09/24 05:03:21;;;;;;;6.35;4.63;;;;;;;12.29;97.25;100192.38;5076619;28;20029;-78
2022/09/24 05:05:46;;;;;;;7.03;5.05;;;;;;;12.35;98.03;100195.06;5077859;28;20040;-78
2022/09/24 05:08:12;;;;;;;8.73;4.68;;;;;;;12.30;97.88;100199.59;5060242;28;20035;-78
2022/09/24 05:10:38;;;;;;;10.75;6.25;;;;;;;12.28;100.00;100212.16;5060014;28;20086;-77
2022/09/24 05:13:03;;;;;;;8.13;5.07;;;;;;;12.31;100.00;100219.91;5061586;28;20032;-78
2022/09/24 05:15:29;;;;;;;8.95;5.68;;;;;;;12.32;100.00;100218.78;5059817;28;20024;-78
2022/09/24 05:17:54;;;;;;;9.50;6.13;;;;;;;12.34;100.00;100215.66;5045091;28;20099;-77
2022/09/24 05:20:20;;;;;;;10.20;6.75;;;;;;;12.31;100.00;100214.31;5023404;28;20039;-78
2022/09/24 05:22:48;;;;;;;13.45;8.25;;;;;;;12.35;100.00;100222.91;5063009;28;20027;-78
2022/09/24 05:25:14;;;;;;;11.93;7.68;;;;;;;12.37;100.00;100226.16;5063225;28;20077;-78
2022/09/24 05:27:44;;;;;;;12.65;6.68;;;;;;;12.38;100.00;100233.41;5084896;28;20511;-78
2022/09/24 05:30:09;;;;;;;11.77;4.90;;;;;;;12.38;100.00;100233.41;5087818;28;20035;-79
2022/09/24 05:32:35;;;;;;;8.73;5.15;;;;;;;12.39;100.00;100246.19;5028397;28;20115;-78
2022/09/24 05:35:01;;;;;;;8.05;4.25;;;;;;;12.43;100.00;100241.66;5037729;28;20031;-78
2022/09/24 05:37:26;;;;;;;8.70;4.03;;;;;;;12.46;100.00;100246.59;5062483;28;20069;-78
2022/09/24 05:39:52;;;;;;;7.55;3.90;;;;;;;12.47;100.00;100243.47;5043997;28;20033;-78
2022/09/24 05:42:18;;;;;;;5.90;3.90;;;;;;;12.50;100.00;100250.38;5048329;28;20097;-78
2022/09/24 05:44:43;;;;;;;7.82;4.30;;;;;;;12.51;100.00;100250.09;5051188;28;20032;-78
2022/09/24 05:47:09;;;;;;;7.28;4.55;;;;;;;12.55;100.00;100243.88;5072871;28;20032;-78
2022/09/24 05:49:34;;;;;;;8.63;4.55;;;;;;;12.56;100.00;100239.94;5088762;28;20057;-77
2022/09/24 05:52:00;;;;;;;8.82;5.07;;;;;;;12.57;100.00;100249.97;5060455;28;20036;-78
2022/09/24 05:54:26;;;;;;;8.40;4.00;;;;;;;12.55;100.00;100253.06;5034212;28;20507;-77
2022/09/24 05:56:51;;;;;;;7.80;4.47;;;;;;;12.60;100.00;100250.16;5084549;28;20028;-78
2022/09/24 05:59:17;;;;;;;7.70;4.63;;;;;;;12.62;100.00;100250.69;5078959;28;20502;-78
2022/09/24 06:01:42;;;;;;;7.97;5.10;;;;;;;12.61;100.00;100251.81;5043781;28;20049;-78
2022/09/24 06:04:09;;;;;;;12.02;6.95;;;;;;;12.60;100.00;100252.94;5025769;28;20024;-77
2022/09/24 06:06:34;;;;;;;9.80;4.20;;;;;;;12.57;100.00;100253.59;5060749;28;20021;-78
2022/09/24 06:08:59;;;;;;;6.30;5.35;;;;;;;12.60;100.00;100252.13;5046507;28;20381;-78
2022/09/24 06:11:28;;;;;;;10.68;5.88;;;;;;;12.59;100.00;100256.88;5045636;28;20028;-78
2022/09/24 06:13:54;;;;;;;13.45;6.85;;;;;;;12.56;100.00;100254.69;5026413;28;20050;-78
2022/09/24 06:16:19;;;;;;;9.15;6.10;;;;;;;12.55;100.00;100252.25;5044775;28;20469;-78
2022/09/24 06:18:45;;;;;;;8.00;5.32;;;;;;;12.56;100.00;100254.69;5038775;28;20019;-78
2022/09/24 06:21:14;;;;;;;9.90;5.93;;;;;;;12.53;100.00;100255.31;5038365;28;20056;-78
2022/09/24 06:23:41;;;;;;;7.22;5.25;;;;;;;12.53;100.00;100263.69;5059087;28;20054;-78
2022/09/24 06:26:08;;;;;;;10.63;6.22;;;;;;;12.50;100.00;100258.75;5047238;28;20115;-78
2022/09/24 06:28:33;;;;;;;7.25;4.45;;;;;;;12.49;100.00;100271.03;5041954;28;20060;-78
2022/09/24 06:30:59;;;;;;;8.82;4.50;;;;;;;12.53;100.00;100260.91;5042661;28;20035;-78
2022/09/24 06:33:25;;;;;;;7.03;5.40;;;;;;;12.52;100.00;100262.88;5041766;28;20107;-78
2022/09/24 06:35:50;;;;;;;9.48;5.32;;;;;;;12.55;100.00;100261.41;5052888;28;20020;-78
2022/09/24 06:38:16;;;;;;;11.50;6.15;;;;;;;12.56;100.00;100265.84;5032946;28;20059;-78
2022/09/24 06:40:44;;;;;;;8.30;4.25;;;;;;;12.56;100.00;100276.97;5051338;28;20024;-78
2022/09/24 06:43:10;;;;;;;6.35;4.07;;;;;;;12.61;100.00;100287.19;5058542;28;20137;-78
2022/09/24 06:45:35;;;;;;;6.28;4.15;;;;;;;12.63;100.00;100287.72;5026154;28;20036;-78
2022/09/24 06:48:01;;;;;;;8.85;5.93;;;;;;;12.64;100.00;100289.34;5049346;28;20040;-78
2022/09/24 06:50:28;;;;;;;8.00;5.03;;;;;;;12.63;100.00;100299.69;5043193;28;20112;-78
2022/09/24 06:52:57;;;;;;;6.57;4.63;;;;;;;12.64;100.00;100298.53;5069611;28;20051;-78
2022/09/24 06:55:23;;;;;;;6.22;4.25;;;;;;;12.66;100.00;100307.41;5041643;28;20107;-78
2022/09/24 06:57:49;;;;;;;8.27;4.78;;;;;;;12.68;100.00;100301.53;5008807;28;20060;-78
2022/09/24 07:00:15;;;;;;;10.18;5.15;;;;;;;12.65;100.00;100294.63;5041575;28;20041;-78
2022/09/24 07:02:40;;;;;;;9.15;5.78;;;;;;;12.68;100.00;100296.78;5025165;28;20544;-78
2022/09/24 07:05:06;;;;;;;9.60;7.05;;;;;;;12.67;100.00;100295.13;5071198;28;20112;-78
2022/09/24 07:07:32;;;;;;;7.07;3.90;;;;;;;12.69;100.00;100300.38;5083312;28;20473;-78
2022/09/24 07:10:00;;;;;;;7.13;4.15;;;;;;;12.70;100.00;100308.44;5046707;28;20053;-78
2022/09/24 07:12:26;;;;;;;5.95;4.45;;;;;;;12.73;100.00;100302.25;5072608;28;20533;-78
2022/09/24 07:14:51;;;;;;;4.88;3.70;;;;;;;12.78;100.00;100300.47;5038250;28;20051;-78
2022/09/24 07:17:17;;;;;;;7.30;4.03;;;;;;;12.80;100.00;100306.56;5034760;28;20029;-78
2022/09/24 07:19:42;;;;;;;6.82;3.83;;;;;;;12.80;100.00;100310.16;5052929;28;20036;-78
2022/09/24 07:22:07;;;;;;;4.63;3.63;;;;;;;12.83;100.00;100314.28;5033923;28;20025;-79
2022/09/24 07:24:33;;;;;;;6.05;3.83;;;;;;;12.87;100.00;100306.94;5035544;28;20040;-75
2022/09/24 07:26:59;;;;;;;4.90;3.55;;;;;;;12.89;100.00;100313.03;5066986;28;20039;-80
2022/09/24 07:29:24;;;;;;;4.85;3.70;;;;;;;12.92;100.00;100310.44;5056798;28;20031;-77
2022/09/24 07:31:50;;;;;;;8.25;4.35;;;;;;;12.97;100.00;100301.13;5052585;28;20029;-77
2022/09/24 07:34:15;;;;;;;5.07;3.70;;;;;;;13.00;100.00;100300.50;5023582;28;20020;-78
2022/09/24 07:36:41;;;;;;;7.25;4.65;;;;;;;13.03;100.00;100305.44;5042630;28;20102;-78
2022/09/24 07:39:06;;;;;;;6.85;4.38;;;;;;;13.09;100.00;100311.72;5069410;28;20025;-78
2022/09/24 07:41:32;;;;;;;9.95;4.85;;;;;;;13.10;100.00;100317.00;5037307;28;20029;-79
2022/09/24 07:43:58;;;;;;;7.35;5.50;;;;;;;13.16;100.00;100312.09;5047196;28;20032;-79
2022/09/24 07:46:24;;;;;;;6.65;5.15;;;;;;;13.19;100.00;100315.09;5037140;28;20099;-78
2022/09/24 07:48:55;;;;;;;9.93;5.85;;;;;;;13.24;100.00;100328.09;5053644;28;20032;-79
2022/09/24 07:51:24;;;;;;;8.65;5.30;;;;;;;13.28;100.00;100329.13;5054951;28;20032;-79
2022/09/24 07:53:50;;;;;;;10.40;6.30;;;;;;;13.34;100.00;100327.03;5064717;28;20024;-79
2022/09/24 07:56:16;;;;;;;9.85;5.80;;;;;;;13.36;100.00;100324.75;5057640;28;20029;-79
2022/09/24 07:58:42;;;;;;;8.50;5.25;;;;;;;13.41;100.00;100324.63;5071088;28;20112;-79
2022/09/24 08:01:07;;;;;;;6.70;4.28;;;;;;;13.48;100.00;100326.97;5055361;28;20093;-78
2022/09/24 08:03:33;;;;;;;9.77;4.63;;;;;;;13.55;100.00;100328.16;5073429;28;20031;-78
2022/09/24 08:06:00;;;;;;;8.00;4.90;;;;;;;13.58;100.00;100326.72;5046524;28;20077;-78
2022/09/24 08:08:26;;;;;;;7.95;5.43;;;;;;;13.64;100.00;100326.25;5063578;28;20485;-78
2022/09/24 08:10:51;;;;;;;11.35;5.43;;;;;;;13.67;100.00;100335.94;5060462;28;20034;-78
2022/09/24 08:13:17;;;;;;;9.93;4.70;;;;;;;13.72;100.00;100335.00;5052596;28;20028;-78
2022/09/24 08:15:42;;;;;;;9.38;5.60;;;;;;;13.79;100.00;100339.00;5038362;28;20112;-75
2022/09/24 08:18:08;;;;;;;4.85;3.33;;;;;;;13.83;100.00;100341.97;5072252;28;20032;-74
2022/09/24 08:20:34;;;;;;;7.78;4.10;;;;;;;13.91;100.00;100341.19;5082640;28;20029;-78
2022/09/24 08:23:04;;;;;;;5.45;3.53;;;;;;;13.99;100.00;100347.97;5042754;28;20048;-78
2022/09/24 08:25:30;;;;;;;8.93;4.85;;;;;;;14.11;100.00;100350.16;5056448;28;20028;-78
2022/09/24 08:28:03;;;;;;;6.78;4.07;;;;;;;14.16;100.00;100352.81;5047927;28;20025;-78
2022/09/24 08:30:29;;;;;;;10.38;5.43;;;;;;;14.27;100.00;100356.94;5021763;28;20028;-78
2022/09/24 08:32:56;;;;;;;8.23;4.28;;;;;;;14.36;100.00;100360.59;5060806;28;20389;-78
2022/09/24 08:35:22;;;;;;;7.43;4.50;;;;;;;14.48;100.00;100363.59;5038007;28;20028;-78
2022/09/24 08:37:47;;;;;;;7.05;4.20;;;;;;;14.63;100.00;100365.16;5056268;28;20027;-78
2022/09/24 08:40:17;;;;;;;8.70;4.75;;;;;;;14.81;100.00;100367.97;5038333;28;20374;-78
2022/09/24 08:42:48;;;;;;;7.65;5.35;;;;;;;14.97;100.00;100367.19;5027407;28;20468;-78
2022/09/24 08:48:14;;;;;;;5.32;4.05;;;;;;;15.37;100.00;100372.63;5043533;28;20031;-78
2022/09/24 08:50:50;;;;;;;9.10;4.93;;;;;;;15.54;100.00;100373.78;5058091;28;20492;-78
2022/09/24 08:53:23;;;;;;;10.35;5.20;;;;;;;15.72;100.00;100374.63;5048636;28;20484;-78
2022/09/24 08:55:53;;;;;;;7.88;4.88;;;;;;;15.89;100.00;100382.16;5049737;28;20503;-78
2022/09/24 08:58:32;;;;;;;13.18;4.90;;;;;;;16.06;100.00;100385.72;5040754;28;20032;-78
2022/09/24 09:01:10;;;;;;;6.85;4.00;;;;;;;16.22;100.00;100383.22;5060388;28;20036;-78
2022/09/24 09:03:39;;;;;;;8.15;3.90;;;;;;;16.38;100.00;100388.25;5060367;28;20028;-78
2022/09/24 09:06:11;;;;;;;11.07;3.92;;;;;;;16.49;100.00;100379.16;5073240;28;20032;-78
2022/09/24 09:08:49;;;;;;;10.02;4.00;;;;;;;16.66;100.00;100394.22;5031878;28;20128;-78
2022/09/24 09:11:15;;;;;;;11.00;4.10;;;;;;;16.75;100.00;100395.00;5061234;28;20094;-78
2022/09/24 09:14:22;;;;;;;12.60;4.28;;;;;;;16.89;98.97;100394.78;5049949;28;20029;-78
2022/09/24 09:17:02;;;;;;;8.30;3.53;;;;;;;17.04;97.86;100399.78;5059125;28;20039;-78
2022/09/24 09:19:33;;;;;;;8.75;3.38;;;;;;;17.10;95.99;100395.63;5042954;28;20038;-78
2022/09/24 09:22:14;;;;;;;8.25;3.13;;;;;;;17.25;95.27;100394.22;5060036;28;20111;-78
2022/09/24 09:24:50;;;;;;;8.52;3.90;;;;;;;17.32;93.49;100402.06;5057376;28;20046;-78
2022/09/24 09:27:17;;;;;;;7.18;3.28;;;;;;;17.41;93.58;100402.81;5017257;28;20078;-77
2022/09/24 09:29:45;;;;;;;8.38;3.33;;;;;;;17.43;91.19;100398.50;5052649;28;20037;-77
2022/09/24 09:32:19;;;;;;;9.13;3.33;;;;;;;17.52;92.38;100395.63;5080974;28;20028;-75
2022/09/24 09:35:13;;;;;;;5.65;2.97;;;;;;;17.54;90.81;100401.72;5076598;28;20028;-75
2022/09/24 09:37:49;;;;;;;9.02;3.00;;;;;;;17.63;90.48;100398.81;5042712;28;20025;-76
2022/09/24 09:41:02;;;;;;;9.82;3.33;;;;;;;17.67;88.55;100408.22;5055938;28;20036;-77
2022/09/24 09:43:28;;;;;;;6.43;2.60;;;;;;;17.65;88.60;100402.94;4998365;28;20045;-76
2022/09/24 09:46:12;;;;;;;5.63;2.45;;;;;;;17.61;86.46;100404.00;5046576;28;20020;-76
2022/09/24 09:48:57;;;;;;;8.20;2.28;;;;;;;17.60;84.43;100414.38;5062510;28;20089;-76
2022/09/24 09:51:24;;;;;;;10.70;2.03;;;;;;;17.61;83.31;100410.41;5059027;28;20041;-76
2022/09/24 09:53:57;;;;;;;8.10;1.80;;;;;;;17.54;81.67;100410.13;5025958;28;20028;-80
2022/09/24 09:56:27;;;;;;;10.98;2.30;;;;;;;17.54;81.23;100412.94;5026871;28;20058;-72
2022/09/24 09:59:20;;;;;;;6.63;1.50;;;;;;;17.62;82.20;100403.63;5063353;28;20090;-74
2022/09/24 10:01:48;;;;;;;5.47;1.85;;;;;;;17.70;82.68;100404.72;5049541;28;20079;-74
2022/09/24 10:04:36;;;;;;;5.57;1.60;;;;;;;17.73;80.95;100400.41;5042342;28;20020;-74
2022/09/24 10:07:19;;;;;;;5.20;1.70;;;;;;;17.74;78.20;100405.66;5067560;28;20024;-74
2022/09/24 10:09:45;;;;;;;7.45;1.60;;;;;;;17.79;79.85;100399.88;5024759;28;20089;-74
2022/09/24 10:12:20;;;;;;;7.22;1.70;;;;;;;17.75;78.02;100400.88;5045645;28;20028;-74
2022/09/24 10:15:05;;;;;;;4.78;1.92;;;;;;;17.82;78.21;100396.34;5023855;28;20036;-74
2022/09/24 10:17:37;;;;;;;5.90;1.90;;;;;;;17.80;77.43;100400.69;5022282;28;20189;-74
2022/09/24 10:20:16;;;;;;;9.75;1.77;;;;;;;17.91;77.38;100395.44;5044995;28;20028;-74
2022/09/24 10:22:54;;;;;;;4.07;1.50;;;;;;;18.03;76.27;100404.75;5039633;28;20027;-74
2022/09/24 10:25:25;;;;;;;4.63;1.85;;;;;;;17.92;75.44;100402.72;5073809;28;20053;-74
2022/09/24 10:27:52;;;;;;;5.07;1.40;;;;;;;17.93;74.90;100399.56;5039855;28;20028;-74
2022/09/24 10:30:33;;;;;;;7.90;1.83;;;;;;;17.99;75.01;100400.97;5050182;28;20033;-74
2022/09/24 10:33:02;;;;;;;8.68;1.83;;;;;;;18.00;74.05;100394.22;5047987;28;20082;-74
2022/09/24 10:35:28;;;;;;;6.93;1.73;;;;;;;18.07;74.38;100388.81;5061990;28;20028;-73
2022/09/24 10:37:56;;;;;;;4.40;1.40;;;;;;;18.23;74.71;100390.97;5056183;28;20449;-73
2022/09/24 10:40:29;;;;;;;4.40;1.55;;;;;;;18.34;75.14;100391.34;5041115;28;20031;-76
2022/09/24 10:43:02;;;;;;;8.25;1.38;;;;;;;18.47;72.15;100391.00;5026223;28;20081;-76
2022/09/24 10:45:39;;;;;;;6.63;1.35;;;;;;;18.58;71.91;100388.53;5074623;28;20028;-76
2022/09/24 10:48:17;;;;;;;4.32;1.02;;;;;;;18.72;71.99;100386.22;5050396;28;20035;-76
2022/09/24 10:50:46;;;;;;;5.43;1.23;;;;;;;18.80;69.68;100397.72;5054251;28;20040;-76
2022/09/24 10:53:11;;;;;;;4.78;1.25;;;;;;;18.80;67.52;100394.91;5072575;28;20028;-76
2022/09/24 10:56:02;;;;;;;6.15;1.10;;;;;;;18.88;66.78;100403.22;5045796;28;20031;-76
2022/09/24 10:58:56;;;;;;;6.80;1.10;;;;;;;18.76;63.93;100394.78;5054809;28;20551;-76
2022/09/24 11:02:06;;;;;;;6.70;1.00;;;;;;;18.65;61.03;100405.66;5071663;28;20060;-76
2022/09/24 11:04:45;;;;;;;4.85;1.17;;;;;;;18.64;62.76;100397.59;5032079;28;20039;-76
2022/09/24 11:07:51;;;;;;;5.25;1.10;;;;;;;18.58;62.83;100398.97;5058157;28;20029;-76
2022/09/24 11:10:50;;;;;;;7.95;1.13;;;;;;;18.63;64.37;100401.56;5041293;28;20033;-76
2022/09/24 11:13:33;;;;;;;5.20;0.93;;;;;;;18.66;65.01;100404.47;5011421;28;20050;-76
2022/09/24 11:16:44;;;;;;;7.20;1.10;;;;;;;18.73;63.39;100398.28;5047253;28;20067;-77
2022/09/24 11:19:29;;;;;;;5.93;1.08;;;;;;;18.79;64.86;100394.09;5036306;28;20092;-77
2022/09/24 11:21:57;;;;;;;8.45;1.50;;;;;;;18.83;64.84;100400.63;5067309;28;20085;-76
2022/09/24 11:24:47;;;;;;;5.15;1.08;;;;;;;18.78;62.85;100395.28;5079686;28;20028;-76
2022/09/24 11:27:40;;;;;;;7.97;1.33;;;;;;;18.79;62.92;100396.09;5058896;28;20117;-76
2022/09/24 11:30:23;;;;;;;4.85;1.08;;;;;;;18.84;62.96;100391.03;5041190;28;20079;-76
2022/09/24 11:33:26;;;;;;;5.85;1.08;;;;;;;18.93;62.67;100394.53;5022842;28;20082;-76
2022/09/24 11:36:13;;;;;;;6.03;1.23;;;;;;;18.90;62.49;100392.44;5074001;28;20032;-75
2022/09/24 11:38:43;;;;;;;6.43;1.38;;;;;;;18.94;62.15;100387.75;5062087;28;20020;-72
2022/09/24 11:41:50;;;;;;;7.30;1.20;;;;;;;18.98;62.09;100385.84;5063229;28;20028;-73